Time;durP1;ratioP1;P1;durP2;ratioP2;P2;SDS_P1;SDS_P2;PMS_P1;PMS_P2;Temp;Humidity;BMP_temperature;BMP_pressure;BME280_temperature;BME280_humidity;BME280_pressure;Samples;Min_cycle;Max_cycle;Signal;HPM_P1;HPM_P2
2023/06/08 05:01:53;;;;;;;;;21.00;20.33;;;;;21.03;53.44;60097.16;6326276;22;45844;-89
2023/06/08 05:04:19;;;;;;;;;23.33;21.33;;;;;20.94;53.69;59922.00;6365254;22;45466;-87
2023/06/08 05:06:44;;;;;;;;;19.00;18.67;;;;;21.40;53.53;59104.56;6366900;22;45377;-87
2023/06/08 05:09:12;;;;;;;;;25.33;22.67;;;;;21.43;53.81;59011.00;6368078;22;45866;-87
2023/06/08 05:11:37;;;;;;;;;24.33;21.00;;;;;21.11;53.97;58420.88;6337344;22;45618;-86
2023/06/08 05:14:03;;;;;;;;;28.00;24.33;;;;;21.48;53.54;57819.25;6335991;22;47073;-83
2023/06/08 05:16:28;;;;;;;;;23.67;22.00;;;;;21.24;53.61;57401.44;6337559;22;45385;-86
2023/06/08 05:18:54;;;;;;;;;32.00;25.33;;;;;21.35;53.97;56588.50;6366807;22;45460;-89
2023/06/08 05:21:19;;;;;;;;;24.67;24.33;;;;;21.52;53.81;56014.16;6366114;22;45313;-89
2023/06/08 05:23:44;;;;;;;;;26.33;24.33;;;;;21.43;53.94;55614.88;6366414;22;46163;-94
2023/06/08 05:26:10;;;;;;;;;28.00;26.00;;;;;21.61;53.99;55403.34;6365817;22;45376;-85
2023/06/08 05:28:36;;;;;;;;;23.33;23.33;;;;;21.49;54.28;54906.94;6365130;22;45672;-86
2023/06/08 05:31:02;;;;;;;;;27.00;24.00;;;;;21.49;53.70;54491.38;6365125;22;45387;-84
2023/06/08 05:33:27;;;;;;;;;24.67;22.67;;;;;21.74;54.06;53747.19;6363603;22;46780;-89
2023/06/08 05:35:53;;;;;;;;;24.67;19.67;;;;;21.69;53.95;53879.72;6362440;22;45370;-88
2023/06/08 05:38:19;;;;;;;;;26.00;21.67;;;;;21.77;54.26;53592.22;6361272;22;48658;-87
2023/06/08 05:40:45;;;;;;;;;25.67;21.00;;;;;21.73;53.73;53323.06;6364991;22;45524;-83
2023/06/08 05:43:11;;;;;;;;;28.00;24.00;;;;;21.53;54.05;52934.63;6365174;22;46132;-85
2023/06/08 05:45:44;;;;;;;;;25.33;23.33;;;;;21.81;53.99;53354.63;6364141;22;45602;-88
2023/06/08 05:48:09;;;;;;;;;34.67;28.67;;;;;21.26;54.34;52431.16;6366640;22;45390;-85
2023/06/08 05:50:34;;;;;;;;;30.00;25.33;;;;;21.47;54.07;52300.31;6339401;22;45469;-84
2023/06/08 05:53:08;;;;;;;;;26.67;26.00;;;;;21.93;53.98;51885.56;6369262;22;45845;-86
2023/06/08 05:55:44;;;;;;;;;29.67;26.00;;;;;21.60;53.77;51494.44;6367002;22;45402;-88
2023/06/08 05:58:23;;;;;;;;;26.67;23.33;;;;;21.16;54.05;51284.41;6366554;22;45366;-87
2023/06/08 06:00:48;;;;;;;;;29.33;26.33;;;;;21.31;53.76;51291.63;6366686;22;45663;-83
2023/06/08 06:03:13;;;;;;;;;31.67;27.00;;;;;21.97;54.03;50725.28;6367121;22;45470;-85
2023/06/08 06:05:39;;;;;;;;;25.67;23.67;;;;;21.22;54.07;50143.94;6366949;22;45746;-86
2023/06/08 06:09:00;;;;;;;;;31.67;27.00;;;;;22.04;54.19;49203.78;6339278;22;45508;-93
2023/06/08 06:11:38;;;;;;;;;30.67;29.67;;;;;21.37;53.90;49551.16;6368155;22;45336;-87
2023/06/08 06:14:26;;;;;;;;;27.33;26.67;;;;;21.83;53.99;49847.84;6365763;22;47399;-85
2023/06/08 06:17:08;;;;;;;;;29.33;26.00;;;;;21.81;54.13;49977.38;6364134;22;45459;-86
2023/06/08 06:19:37;;;;;;;;;29.67;27.00;;;;;22.23;53.80;49643.25;6367038;22;45340;-84
2023/06/08 06:22:15;;;;;;;;;26.33;24.00;;;;;22.24;54.12;49201.38;6367050;22;45346;-84
2023/06/08 06:24:40;;;;;;;;;24.67;22.67;;;;;21.70;54.13;48985.22;6366745;22;46068;-86
2023/06/08 06:27:06;;;;;;;;;25.67;24.67;;;;;22.22;54.04;48778.84;6367174;22;45314;-84
2023/06/08 06:29:31;;;;;;;;;35.67;32.67;;;;;22.30;54.09;48359.94;6338083;22;45344;-84
2023/06/08 06:32:00;;;;;;;;;25.33;21.67;;;;;22.36;53.48;48452.63;6367059;22;45394;-88
2023/06/08 06:34:26;;;;;;;;;28.00;26.00;;;;;22.20;54.31;48059.38;6366891;22;45610;-84
2023/06/08 06:36:51;;;;;;;;;26.00;25.33;;;;;22.25;53.66;48186.47;6338053;22;45355;-84
2023/06/08 06:39:25;;;;;;;;;27.67;25.33;;;;;21.76;53.93;47562.25;6367261;22;45498;-84
2023/06/08 06:41:57;;;;;;;;;23.67;22.67;;;;;22.50;54.00;47312.22;6365782;22;45437;-85
2023/06/08 06:44:23;;;;;;;;;24.67;24.67;;;;;22.09;53.87;47249.16;6366017;22;46918;-84
2023/06/08 06:46:48;;;;;;;;;24.67;21.33;;;;;22.56;54.15;46989.75;6338538;22;45583;-82
2023/06/08 06:49:17;;;;;;;;;28.33;28.00;;;;;22.18;53.66;47162.84;6367056;22;45452;-83
2023/06/08 06:51:42;;;;;;;;;30.33;27.33;;;;;22.69;53.56;46627.44;6366859;22;45487;-82
2023/06/08 06:54:07;;;;;;;;;30.33;25.67;;;;;22.46;53.67;46684.06;6365419;22;46984;-82
2023/06/08 06:56:33;;;;;;;;;31.33;28.67;;;;;22.31;53.50;46544.00;6365357;22;47850;-83
2023/06/08 06:59:02;;;;;;;;;19.00;17.67;;;;;22.45;53.88;46321.50;6363816;22;45817;-83
2023/06/08 07:01:28;;;;;;;;;30.00;27.67;;;;;22.64;54.09;45959.06;6365510;22;45358;-82
2023/06/08 07:03:53;;;;;;;;;27.00;25.00;;;;;22.67;53.73;46025.81;6366790;22;45610;-82
2023/06/08 07:06:23;;;;;;;;;27.00;23.33;;;;;22.60;53.38;46333.69;6366801;22;45373;-82
2023/06/08 07:08:49;;;;;;;;;23.00;21.33;;;;;22.70;53.28;46041.22;6367919;22;45334;-82
2023/06/08 07:11:17;;;;;;;;;26.33;24.00;;;;;22.90;53.13;46287.59;6367805;22;45867;-83
2023/06/08 07:13:43;;;;;;;;;26.33;24.67;;;;;22.89;52.79;47475.16;6312751;22;45434;-83
2023/06/08 07:16:08;;;;;;;;;29.00;24.67;;;;;22.81;52.52;48095.69;6367692;22;45373;-83
2023/06/08 07:18:33;;;;;;;;;31.33;29.00;;;;;23.00;52.43;47693.16;6367464;22;45372;-82
2023/06/08 07:20:59;;;;;;;;;27.67;23.00;;;;;23.02;53.11;47303.16;6367082;22;45736;-83
2023/06/08 07:23:24;;;;;;;;;33.67;29.67;;;;;23.29;53.10;46573.38;6367546;22;45809;-83
2023/06/08 07:25:51;;;;;;;;;25.33;23.67;;;;;22.88;53.02;47382.75;6367071;22;45475;-83
2023/06/08 07:28:16;;;;;;;;;25.33;24.00;;;;;22.97;52.85;47132.72;6367764;22;45362;-83
2023/06/08 07:30:42;;;;;;;;;29.00;23.33;;;;;22.91;52.83;46618.22;6367866;22;45431;-82
2023/06/08 07:33:07;;;;;;;;;29.67;27.00;;;;;23.21;52.70;46779.19;6368133;22;46021;-83
2023/06/08 07:35:33;;;;;;;;;26.00;24.67;;;;;23.11;52.80;46639.56;6367595;22;45337;-85
2023/06/08 07:37:58;;;;;;;;;32.00;26.33;;;;;22.80;53.02;45781.25;6366982;22;45240;-86
2023/06/08 07:40:26;;;;;;;;;40.50;35.25;;;;;22.95;52.59;45615.94;6368661;22;45334;-84
2023/06/08 07:42:51;;;;;;;;;31.00;30.00;;;;;23.19;53.08;45342.47;6367437;22;46322;-84
2023/06/08 07:45:17;;;;;;;;;30.00;27.00;;;;;23.23;53.15;45495.84;6366372;22;45297;-84
2023/06/08 07:47:59;;;;;;;;;28.67;26.33;;;;;22.92;52.29;46640.47;6367604;22;45594;-85
2023/06/08 07:50:25;;;;;;;;;31.00;28.00;;;;;23.25;52.22;45971.81;6368477;22;45309;-84
2023/06/08 07:52:50;;;;;;;;;32.33;29.67;;;;;23.73;53.01;44477.53;6368000;22;46756;-84
2023/06/08 07:55:15;;;;;;;;;42.67;37.00;;;;;23.66;52.25;45692.75;6338635;22;45331;-85
2023/06/08 07:57:48;;;;;;;;;26.67;21.00;;;;;23.85;52.52;45245.81;6368161;22;45542;-84
2023/06/08 08:00:17;;;;;;;;;39.67;32.33;;;;;23.90;52.56;45845.88;6368214;22;45448;-85
2023/06/08 08:02:57;;;;;;;;;29.67;25.67;;;;;23.37;52.57;45152.53;6366278;22;46281;-85
2023/06/08 08:05:23;;;;;;;;;46.67;37.67;;;;;24.16;51.90;45334.94;6367625;22;45374;-86
2023/06/08 08:07:58;;;;;;;;;66.25;52.75;;;;;23.68;52.30;45257.25;6366493;22;45442;-84
2023/06/08 08:12:51;;;;;;;;;41.00;31.33;;;;;24.52;51.84;41158.59;5019359;27;45696;-83
2023/06/08 08:15:16;;;;;;;;;55.75;42.00;;;;;24.93;50.82;44354.03;4989291;27;45514;-85
2023/06/08 08:17:41;;;;;;;;;33.67;29.00;;;;;24.60;50.28;44939.13;4989188;27;45496;-85
2023/06/08 08:20:07;;;;;;;;;28.33;24.67;;;;;24.97;49.99;45075.13;4994484;28;45999;-84
2023/06/08 08:22:33;;;;;;;;;21.00;19.67;;;;;25.20;50.08;45918.59;4995237;27;46804;-86
2023/06/08 08:24:58;;;;;;;;;28.00;25.00;;;;;25.32;49.69;46097.41;4988688;28;46938;-85
2023/06/08 08:27:23;;;;;;;;;26.33;20.00;;;;;25.23;49.60;48362.91;4984706;28;45610;-85
2023/06/08 08:29:49;;;;;;;;;25.67;23.33;;;;;25.63;49.32;48137.22;4992668;27;46957;-86
2023/06/08 08:32:15;;;;;;;;;31.00;26.33;;;;;25.44;49.38;49293.03;4986820;28;48718;-83
2023/06/08 08:34:40;;;;;;;;;27.33;21.67;;;;;25.74;49.04;49539.47;4987990;28;45455;-88
2023/06/08 08:37:05;;;;;;;;;34.67;30.67;;;;;25.79;48.67;48430.13;4991815;27;45575;-91
2023/06/08 08:39:32;;;;;;;;;27.67;25.00;;;;;25.58;48.94;49391.31;4987385;28;45383;-87
2023/06/08 08:42:02;;;;;;;;;26.00;24.00;;;;;25.48;48.65;50773.28;4989026;28;45499;-85
2023/06/08 08:44:30;;;;;;;;;22.33;22.00;;;;;26.23;48.54;50373.78;4993256;27;46225;-88
2023/06/08 08:47:02;;;;;;;;;25.00;23.00;;;;;25.88;48.25;50031.53;4988437;28;45424;-86
2023/06/08 08:49:32;;;;;;;;;25.00;23.33;;;;;25.98;48.85;48915.34;4987886;28;45474;-86
2023/06/08 08:52:01;;;;;;;;;23.00;17.33;;;;;26.53;48.33;48481.16;4993408;27;47340;-85
2023/06/08 08:54:31;;;;;;;;;21.67;21.33;;;;;26.49;48.23;47932.34;4997248;27;45396;-81
2023/06/08 08:56:58;;;;;;;;;21.00;21.00;;;;;26.86;48.45;46877.56;4994142;27;45485;-85
2023/06/08 08:59:24;;;;;;;;;24.67;21.67;;;;;27.02;48.83;45139.22;5019682;27;45469;-83
2023/06/08 09:01:49;;;;;;;;;24.00;23.33;;;;;27.65;47.70;47419.44;4987839;28;45448;-84
2023/06/08 09:04:16;;;;;;;;;23.67;20.00;;;;;27.74;48.44;45700.22;5001860;27;45380;-96
2023/06/08 09:06:48;;;;;;;;;20.33;18.33;;;;;28.07;48.35;45487.59;5009860;27;45556;-96
2023/06/08 09:09:14;;;;;;;;;13.33;12.67;;;;;28.00;47.87;45895.94;4989677;28;45610;-90
2023/06/08 09:12:03;;;;;;;;;21.67;20.33;;;;;28.25;47.22;47762.78;4990928;27;47989;-88
2023/06/08 09:14:30;;;;;;;;;21.33;18.33;;;;;28.30;46.63;48389.22;5002909;28;45713;-87
2023/06/08 09:16:58;;;;;;;;;21.33;20.00;;;;;28.75;45.02;51917.75;5003159;27;45455;-88
2023/06/08 09:19:24;;;;;;;;;22.33;19.33;;;;;28.41;46.17;49754.59;5019123;27;45447;-85
2023/06/08 09:21:50;;;;;;;;;21.67;20.67;;;;;29.43;44.50;51796.41;5007048;27;46377;-86
2023/06/08 09:24:19;;;;;;;;;19.67;16.33;;;;;29.58;45.13;50403.63;4982204;28;45491;-86
2023/06/08 09:26:55;;;;;;;;;22.67;20.67;;;;;30.03;43.81;51710.56;4976638;28;45496;-86
2023/06/08 09:29:44;;;;;;;;;18.67;18.67;;;;;31.28;41.63;56031.03;4978915;27;45741;-89
2023/06/08 09:32:14;;;;;;;;;19.67;19.00;;;;;31.82;40.22;57625.06;4980628;28;47234;-88
2023/06/08 09:34:54;;;;;;;;;17.67;15.00;;;;;32.87;39.91;58286.94;4984846;28;45661;-86
2023/06/08 09:37:25;;;;;;;;;17.00;16.00;;;;;33.21;38.69;60959.31;4985863;28;45502;-86
2023/06/08 09:39:51;;;;;;;;;10.67;10.33;;;;;32.80;39.05;62153.22;4985602;28;45897;-89
2023/06/08 09:42:16;;;;;;;;;18.67;17.00;;;;;32.61;39.19;62728.94;4981043;28;46513;-92
2023/06/08 09:44:42;;;;;;;;;19.67;16.67;;;;;32.60;39.16;62397.63;4977313;28;46062;-89
2023/06/08 09:47:27;;;;;;;;;15.67;14.33;;;;;33.81;38.44;62474.66;4977081;28;45873;-88
2023/06/08 09:49:54;;;;;;;;;14.00;12.33;;;;;34.23;36.38;64147.50;4975769;28;45661;-89
2023/06/08 09:52:21;;;;;;;;;15.67;14.33;;;;;34.22;36.21;65157.72;4972789;28;46738;-90
2023/06/08 09:54:47;;;;;;;;;15.00;14.00;;;;;35.46;35.00;66010.41;5017034;27;45573;-87
2023/06/08 09:57:20;;;;;;;;;14.67;13.67;;;;;36.22;34.00;67518.94;4996249;28;45603;-86
2023/06/08 10:00:17;;;;;;;;;15.67;14.00;;;;;36.42;33.84;68221.56;4988879;28;45504;-86
2023/06/08 10:02:43;;;;;;;;;17.67;15.00;;;;;36.35;33.86;68635.97;4984034;28;46836;-85
2023/06/08 10:05:13;;;;;;;;;14.67;14.00;;;;;36.14;33.14;69054.75;4986822;28;45406;-87
2023/06/08 10:07:44;;;;;;;;;15.67;15.00;;;;;36.22;32.37;69267.34;4989893;28;45510;-86
2023/06/08 10:10:09;;;;;;;;;17.00;15.00;;;;;36.96;32.07;69645.69;4976608;28;45454;-88
2023/06/08 10:12:35;;;;;;;;;15.67;14.67;;;;;37.49;30.76;70067.66;5001412;28;46648;-87
2023/06/08 10:15:01;;;;;;;;;13.33;11.67;;;;;37.91;28.93;70476.13;4996027;28;45614;-88
2023/06/08 10:17:29;;;;;;;;;13.00;13.00;;;;;37.90;29.70;70656.63;4990666;28;45587;-88
2023/06/08 10:19:56;;;;;;;;;16.00;13.33;;;;;37.93;29.49;70785.13;5011221;27;45466;-89
2023/06/08 10:22:22;;;;;;;;;13.00;13.00;;;;;37.56;29.02;70722.56;4992932;28;47226;-93
2023/06/08 10:25:03;;;;;;;;;14.33;13.67;;;;;38.55;28.93;70907.63;4998248;28;45301;-88
2023/06/08 10:27:32;;;;;;;;;16.00;15.00;;;;;38.34;28.90;70868.53;5007784;28;45514;-88
2023/06/08 10:30:00;;;;;;;;;14.33;13.33;;;;;38.08;29.04;71011.97;4991417;27;45564;-87
2023/06/08 10:32:36;;;;;;;;;12.00;12.00;;;;;38.30;29.15;71048.91;4995952;28;45781;-90
2023/06/08 10:35:06;;;;;;;;;13.00;13.00;;;;;37.88;28.60;70971.88;4992678;28;45709;-89
2023/06/08 10:37:33;;;;;;;;;10.33;10.33;;;;;37.91;28.75;70973.31;4984173;28;46813;-94
2023/06/08 10:40:00;;;;;;;;;13.33;13.33;;;;;38.59;28.54;70998.16;4974973;28;45300;-95
2023/06/08 10:42:26;;;;;;;;;16.00;12.67;;;;;38.65;29.10;71184.56;5014168;27;47562;-96
2023/06/08 10:44:58;;;;;;;;;14.33;13.33;;;;;38.05;28.65;71160.31;4996227;27;45363;-96
2023/06/08 10:47:25;;;;;;;;;13.00;13.00;;;;;38.85;29.07;71150.00;4986105;28;45679;-95
2023/06/08 10:49:59;;;;;;;;;12.00;12.00;;;;;38.47;29.17;71058.38;4999501;27;45495;-94
2023/06/08 10:52:26;;;;;;;;;14.67;13.00;;;;;38.21;28.84;71066.94;5010229;28;47216;-94
2023/06/08 10:54:59;;;;;;;;;13.00;12.00;;;;;38.63;28.96;71088.72;4985641;28;45865;-96
2023/06/08 10:57:46;;;;;;;;;13.00;11.67;;;;;38.44;29.21;71170.84;4979663;28;45471;-95
2023/06/08 11:00:22;;;;;;;;;14.00;14.00;;;;;38.49;29.32;71040.81;5048548;27;45085;-94
2023/06/08 11:02:55;;;;;;;;;14.33;14.33;;;;;37.67;29.12;71010.69;5057707;22;48491;-89
2023/06/08 11:05:21;;;;;;;;;14.00;14.00;;;;;38.38;29.09;71059.16;4951552;28;45594;-89
2023/06/08 11:07:46;;;;;;;;;15.33;15.00;;;;;38.25;28.87;71056.72;4954616;28;45453;-89
2023/06/08 11:10:12;;;;;;;;;11.67;11.67;;;;;37.79;29.62;71058.28;4954552;28;45967;-91
2023/06/08 11:12:38;;;;;;;;;14.00;14.00;;;;;37.73;29.42;70935.09;4953161;28;48501;-91
2023/06/08 11:15:04;;;;;;;;;11.00;9.67;;;;;37.15;28.44;70748.41;4953159;28;45630;-89
2023/06/08 11:17:34;;;;;;;;;16.33;14.33;;;;;37.32;29.92;70914.50;4954818;28;45758;-88
2023/06/08 11:20:05;;;;;;;;;13.00;13.00;;;;;37.42;28.55;70771.34;4954093;28;45861;-89
2023/06/08 11:22:30;;;;;;;;;15.67;15.67;;;;;37.22;29.59;70864.44;4953494;28;45496;-87
2023/06/08 11:24:56;;;;;;;;;17.00;15.67;;;;;37.33;30.43;70822.47;4953773;28;45520;-88
2023/06/08 11:27:30;;;;;;;;;13.67;12.33;;;;;37.01;29.65;70773.53;4957599;28;45426;-88
2023/06/08 11:29:55;;;;;;;;;15.33;15.33;;;;;37.00;30.15;70799.34;4940172;28;45750;-88
2023/06/08 11:32:25;;;;;;;;;15.67;15.67;;;;;36.05;30.64;70696.94;4938916;28;46476;-87
2023/06/08 11:34:51;;;;;;;;;14.67;14.67;;;;;35.85;30.85;70692.19;4951673;28;45552;-90
2023/06/08 11:37:19;;;;;;;;;15.33;15.33;;;;;36.39;30.72;70747.06;4954857;28;45483;-87
2023/06/08 11:39:48;;;;;;;;;12.33;12.33;;;;;35.82;30.90;70722.22;4942544;28;45534;-87
2023/06/08 11:42:14;;;;;;;;;13.33;13.00;;;;;36.59;30.37;70704.97;4935162;28;46617;-88
2023/06/08 11:44:39;;;;;;;;;12.33;12.33;;;;;36.20;29.29;70604.22;4944397;28;45639;-86
2023/06/08 11:47:08;;;;;;;;;12.00;12.00;;;;;36.02;30.33;70616.22;4952299;28;45439;-86
2023/06/08 11:49:51;;;;;;;;;17.33;14.67;;;;;35.73;31.06;70537.97;4952127;28;45505;-87
2023/06/08 11:52:17;;;;;;;;;14.00;13.00;;;;;35.55;27.72;70379.38;4950806;28;46372;-86
2023/06/08 11:54:43;;;;;;;;;13.33;13.33;;;;;35.12;27.55;70322.97;4956719;28;45487;-89
2023/06/08 11:57:08;;;;;;;;;15.67;15.67;;;;;35.00;28.59;70370.28;4949482;28;45477;-89
2023/06/08 11:59:36;;;;;;;;;15.67;15.67;;;;;34.89;29.54;70395.63;4941003;28;45873;-88
2023/06/08 12:02:06;;;;;;;;;13.33;12.67;;;;;34.50;30.37;70325.34;4946638;28;45414;-89
2023/06/08 12:04:35;;;;;;;;;16.00;14.33;;;;;33.99;30.22;70293.50;4950732;28;45892;-88
2023/06/08 12:07:11;;;;;;;;;20.50;17.00;;;;;33.91;29.59;70294.91;4946060;28;45470;-88
2023/06/08 12:09:37;;;;;;;;;17.33;16.33;;;;;33.58;30.02;70302.63;4944090;28;45569;-90
2023/06/08 12:12:08;;;;;;;;;19.00;17.00;;;;;33.47;31.71;70270.22;4950049;28;46285;-88
2023/06/08 12:14:44;;;;;;;;;13.67;13.67;;;;;33.17;30.59;70304.63;4953376;28;45698;-87
2023/06/08 12:17:14;;;;;;;;;13.33;13.33;;;;;32.87;30.62;70198.00;4950829;28;45486;-89
2023/06/08 12:19:51;;;;;;;;;14.67;14.67;;;;;32.62;30.38;70211.94;4953495;28;45521;-91
2023/06/08 12:22:16;;;;;;;;;14.00;14.00;;;;;32.49;31.21;70246.22;4944772;28;45558;-91
2023/06/08 12:24:42;;;;;;;;;16.67;15.33;;;;;32.28;30.47;70178.44;4952740;28;50428;-92
2023/06/08 12:27:07;;;;;;;;;15.33;14.33;;;;;32.19;30.12;70145.78;4952811;28;45823;-92
2023/06/08 12:29:37;;;;;;;;;16.67;15.33;;;;;32.20;29.40;70212.09;4952596;28;45421;-92
2023/06/08 12:32:03;;;;;;;;;18.67;16.33;;;;;32.09;30.98;70207.72;4944294;28;45516;-90
2023/06/08 12:34:30;;;;;;;;;14.33;14.00;;;;;32.12;32.18;70214.66;4945633;28;45408;-90
2023/06/08 12:36:55;;;;;;;;;14.67;14.67;;;;;32.01;33.35;70261.06;4952758;28;45530;-90
2023/06/08 12:39:20;;;;;;;;;17.33;16.00;;;;;31.81;33.33;70246.47;4953469;28;45408;-89
2023/06/08 12:41:45;;;;;;;;;10.33;10.33;;;;;31.52;30.96;70119.94;4946521;28;47276;-94
2023/06/08 12:44:11;;;;;;;;;15.00;15.00;;;;;31.56;31.87;70222.56;4933389;28;45573;-91
2023/06/08 12:46:37;;;;;;;;;14.33;13.33;;;;;31.55;31.57;70153.00;4933876;28;45443;-90
2023/06/08 12:49:03;;;;;;;;;14.00;14.00;;;;;31.54;31.38;70187.38;4941318;28;45408;-91
2023/06/08 12:51:29;;;;;;;;;17.33;17.33;;;;;31.47;31.64;70176.84;4952102;28;45455;-89
2023/06/08 12:53:55;;;;;;;;;18.00;15.33;;;;;31.61;32.58;70230.69;4947816;28;45344;-89
2023/06/08 12:56:21;;;;;;;;;15.00;14.33;;;;;31.52;32.88;70165.84;4948643;28;45507;-91
2023/06/08 12:58:46;;;;;;;;;11.33;11.33;;;;;31.40;33.68;70176.03;4949598;28;45440;-92
2023/06/08 13:01:12;;;;;;;;;17.33;17.33;;;;;31.23;33.62;70197.25;4952303;28;47408;-89
2023/06/08 13:03:39;;;;;;;;;15.67;14.67;;;;;31.32;33.92;70173.09;4952897;28;45558;-88
2023/06/08 13:06:04;;;;;;;;;14.33;14.33;;;;;31.32;34.07;70202.59;4955690;28;45738;-90
2023/06/08 13:08:30;;;;;;;;;18.33;15.67;;;;;31.30;34.03;70159.78;4955266;28;45785;-90
2023/06/08 13:10:55;;;;;;;;;14.00;14.00;;;;;31.30;34.64;70239.06;4955242;28;46396;-92
2023/06/08 13:13:20;;;;;;;;;15.33;14.67;;;;;31.27;34.53;70125.53;4954737;28;45825;-90
2023/06/08 13:15:48;;;;;;;;;15.33;13.00;;;;;31.23;34.53;70216.97;4955803;28;45414;-92
2023/06/08 13:18:13;;;;;;;;;14.00;13.67;;;;;31.07;35.42;70148.63;4956266;28;45498;-93
2023/06/08 13:20:38;;;;;;;;;15.00;14.33;;;;;31.17;35.06;70146.94;4953492;28;45499;-92
2023/06/08 13:23:04;;;;;;;;;17.00;13.33;;;;;31.06;35.29;70117.97;4955700;28;45381;-94
2023/06/08 13:25:30;;;;;;;;;16.67;15.33;;;;;31.15;35.33;70130.88;4954779;28;45638;-90
2023/06/08 13:27:56;;;;;;;;;14.33;14.33;;;;;30.92;35.61;70164.03;4956032;28;45484;-91
2023/06/08 13:30:21;;;;;;;;;13.33;13.33;;;;;30.63;34.71;70064.34;4952888;28;46511;-93
2023/06/08 13:32:47;;;;;;;;;13.33;12.67;;;;;30.79;34.62;70061.03;4955186;28;45481;-90
2023/06/08 13:35:13;;;;;;;;;16.33;15.33;;;;;30.87;35.22;70068.50;4955235;28;45443;-90
2023/06/08 13:37:38;;;;;;;;;16.33;16.33;;;;;30.83;35.88;70050.03;4955938;28;45543;-92
2023/06/08 13:40:05;;;;;;;;;12.33;12.33;;;;;30.73;34.81;70100.28;4955421;28;45954;-90
2023/06/08 13:42:31;;;;;;;;;14.00;12.67;;;;;30.67;35.29;70025.41;4955630;28;45421;-92
2023/06/08 13:44:56;;;;;;;;;12.67;12.67;;;;;30.81;35.99;70028.53;4955141;28;45398;-92
2023/06/08 13:47:22;;;;;;;;;13.67;13.67;;;;;30.58;36.04;70012.53;4955938;28;45674;-93
2023/06/08 13:49:47;;;;;;;;;17.67;16.00;;;;;30.46;36.35;70012.44;4951615;28;46108;-93
2023/06/08 13:52:13;;;;;;;;;16.00;15.67;;;;;30.47;36.28;70002.69;4946839;28;45909;-95
2023/06/08 13:54:38;;;;;;;;;13.00;12.33;;;;;30.47;37.25;70065.47;4965491;28;45680;-93
2023/06/08 13:57:04;;;;;;;;;12.33;11.67;;;;;30.36;36.65;69978.63;4947406;28;45389;-91
2023/06/08 13:59:30;;;;;;;;;15.33;15.33;;;;;30.58;36.58;70033.75;4948129;28;46875;-91
2023/06/08 14:01:55;;;;;;;;;15.33;14.33;;;;;30.44;36.85;70028.53;4955273;28;45717;-93
2023/06/08 14:04:21;;;;;;;;;16.67;14.33;;;;;30.52;36.38;69961.66;4941761;28;45461;-92
2023/06/08 14:06:46;;;;;;;;;15.67;14.67;;;;;30.60;36.41;69995.19;4935685;28;45547;-89
2023/06/08 14:09:11;;;;;;;;;16.00;15.67;;;;;30.41;36.58;69989.47;4921721;28;46280;-93
2023/06/08 14:11:37;;;;;;;;;15.67;14.67;;;;;30.52;37.18;69934.38;4948654;28;46405;-92
2023/06/08 14:14:02;;;;;;;;;17.33;16.00;;;;;30.36;36.90;69912.53;4924940;28;45469;-91
2023/06/08 14:16:28;;;;;;;;;15.67;14.33;;;;;30.55;36.82;69956.47;4936506;28;45754;-91
2023/06/08 14:18:54;;;;;;;;;19.33;19.00;;;;;30.32;37.56;69872.88;4931156;28;46325;-90
2023/06/08 14:21:20;;;;;;;;;18.67;17.00;;;;;30.18;37.10;69908.56;4917700;28;45717;-91
2023/06/08 14:23:45;;;;;;;;;23.33;22.67;;;;;30.17;37.56;69854.94;4920845;28;46536;-90
2023/06/08 14:26:10;;;;;;;;;21.00;17.00;;;;;30.09;36.08;69818.69;4927259;28;45667;-89
2023/06/08 14:28:36;;;;;;;;;16.67;16.33;;;;;30.06;38.15;69832.09;4920994;28;46310;-91
2023/06/08 14:31:02;;;;;;;;;18.33;18.33;;;;;29.95;38.22;69840.16;4918633;28;45425;-85
2023/06/08 14:33:27;;;;;;;;;18.00;16.00;;;;;30.07;38.22;69773.25;4922340;28;45443;-85
2023/06/08 14:35:53;;;;;;;;;19.33;19.33;;;;;30.02;38.09;69808.22;4926206;28;45553;-87
2023/06/08 14:38:18;;;;;;;;;17.67;16.33;;;;;30.01;37.23;69858.22;4922507;28;49456;-86
2023/06/08 14:40:44;;;;;;;;;18.00;17.00;;;;;29.94;37.84;69787.16;4915874;28;45761;-85
2023/06/08 14:43:09;;;;;;;;;18.67;15.67;;;;;30.02;38.32;69731.81;4929154;28;45528;-86
2023/06/08 14:45:34;;;;;;;;;15.00;15.00;;;;;30.02;38.08;69718.19;4929109;28;45621;-86
2023/06/08 14:48:00;;;;;;;;;16.67;15.00;;;;;30.04;38.38;69717.84;4930676;28;46266;-84
2023/06/08 14:50:28;;;;;;;;;15.67;15.67;;;;;29.99;38.12;69692.81;4930285;28;48542;-84
2023/06/08 14:52:53;;;;;;;;;16.33;16.33;;;;;30.06;38.36;69695.69;4916148;28;45371;-84
2023/06/08 14:55:18;;;;;;;;;19.33;16.00;;;;;30.00;38.75;69633.38;4915903;28;45383;-84
2023/06/08 14:57:44;;;;;;;;;15.67;14.33;;;;;30.08;38.41;69711.09;4927456;28;45405;-85
2023/06/08 15:00:10;;;;;;;;;16.00;16.00;;;;;30.00;38.05;69729.44;4927667;28;45878;-86
2023/06/08 15:02:35;;;;;;;;;16.33;13.67;;;;;29.95;37.94;69679.25;4934040;28;45438;-85
2023/06/08 15:05:01;;;;;;;;;16.67;13.67;;;;;30.08;38.09;69659.84;4951337;28;45494;-85
2023/06/08 15:07:26;;;;;;;;;17.67;17.67;;;;;30.05;38.54;69612.66;4968913;28;47529;-86
2023/06/08 15:09:52;;;;;;;;;14.67;14.67;;;;;30.03;38.59;69579.66;4955556;28;45687;-86
2023/06/08 15:12:17;;;;;;;;;14.33;14.33;;;;;29.99;38.06;69597.34;4953530;28;48255;-85
2023/06/08 15:14:42;;;;;;;;;13.67;13.67;;;;;29.98;38.24;69631.00;4948850;28;45571;-85
2023/06/08 15:17:08;;;;;;;;;18.00;15.67;;;;;29.99;38.48;69665.53;4952636;28;46799;-83
2023/06/08 15:19:33;;;;;;;;;16.00;15.33;;;;;29.84;38.71;69653.69;4953145;28;45592;-85
2023/06/08 15:21:58;;;;;;;;;16.33;14.67;;;;;29.94;37.11;69675.91;4953434;28;46116;-86
2023/06/08 15:24:24;;;;;;;;;15.00;14.00;;;;;29.72;38.44;69627.91;4942993;28;45421;-88
2023/06/08 15:26:50;;;;;;;;;18.00;16.67;;;;;29.77;38.97;69560.25;4957362;28;45486;-87
2023/06/08 15:29:16;;;;;;;;;16.33;16.33;;;;;29.84;38.68;69558.25;4952931;28;45639;-87
2023/06/08 15:31:45;;;;;;;;;16.00;15.67;;;;;29.77;38.80;69598.41;4943269;28;45457;-88
2023/06/08 15:34:10;;;;;;;;;16.67;16.33;;;;;29.76;38.41;69627.19;4948399;28;45447;-90
2023/06/08 15:36:36;;;;;;;;;15.33;15.33;;;;;29.70;37.92;69574.31;4953821;28;46320;-88
2023/06/08 15:39:03;;;;;;;;;18.33;16.33;;;;;29.45;38.60;69542.41;4952927;28;45490;-93
2023/06/08 15:41:28;;;;;;;;;15.33;14.33;;;;;29.42;39.39;69457.09;4940993;28;45478;-91
2023/06/08 15:44:01;;;;;;;;;17.33;15.67;;;;;29.22;39.30;69483.56;4935779;28;45418;-88
2023/06/08 15:46:27;;;;;;;;;17.00;16.00;;;;;28.84;39.29;69504.28;4948686;28;46574;-91
2023/06/08 15:48:54;;;;;;;;;18.33;16.00;;;;;28.83;38.78;69525.47;4942376;28;45850;-90
2023/06/08 15:51:27;;;;;;;;;16.00;14.33;;;;;29.03;39.04;69496.94;4953128;28;45921;-91
2023/06/08 15:53:52;;;;;;;;;21.00;21.00;;;;;29.00;38.68;69539.06;4948947;28;45483;-87
2023/06/08 15:56:23;;;;;;;;;18.67;16.33;;;;;28.55;39.25;69386.63;4976445;28;46070;-86
2023/06/08 15:58:50;;;;;;;;;17.67;16.67;;;;;28.86;39.04;69522.41;4940010;28;45678;-90
2023/06/08 16:01:16;;;;;;;;;18.67;17.00;;;;;28.63;39.55;69392.81;4945727;28;45479;-91
2023/06/08 16:03:41;;;;;;;;;18.33;17.67;;;;;28.64;39.36;69369.50;4954283;28;45580;-94
2023/06/08 16:06:07;;;;;;;;;16.67;15.33;;;;;28.42;36.74;69501.75;4945587;28;46047;-90
2023/06/08 16:08:32;;;;;;;;;16.33;14.00;;;;;28.73;37.80;69548.97;4940504;28;45333;-85
2023/06/08 16:10:58;;;;;;;;;14.00;14.00;;;;;28.78;38.88;69478.09;4955703;28;45441;-87
2023/06/08 16:13:24;;;;;;;;;17.00;15.33;;;;;28.74;39.48;69471.22;4954096;28;45441;-89
2023/06/08 16:15:49;;;;;;;;;13.33;12.33;;;;;28.82;37.73;69543.34;4942786;28;46355;-90
2023/06/08 16:18:15;;;;;;;;;12.67;12.67;;;;;28.73;38.80;69467.31;4943638;28;45434;-93
2023/06/08 16:20:40;;;;;;;;;16.33;16.33;;;;;28.72;39.45;69379.00;4945471;28;45713;-93
2023/06/08 16:23:05;;;;;;;;;17.33;15.67;;;;;28.45;39.62;69355.06;4945561;28;45688;-94